createdAt,value
2022-08-28T00:01:09.925Z,18.42
2022-08-28T00:06:12.717Z,18.21
2022-08-28T00:11:17.220Z,18.10
2022-08-28T00:16:20.078Z,17.89
2022-08-28T00:21:22.941Z,17.80
2022-08-28T00:26:44.932Z,17.76
2022-08-28T00:31:47.853Z,17.65
2022-08-28T00:36:50.682Z,17.57
2022-08-28T00:41:56.728Z,17.51
2022-08-28T00:47:01.241Z,17.47
2022-08-28T00:52:12.425Z,17.48
2022-08-28T00:57:21.794Z,17.44
2022-08-28T01:02:31.834Z,17.31
2022-08-28T01:07:34.840Z,17.25
2022-08-28T01:12:39.218Z,17.16
2022-08-28T01:17:46.267Z,16.95
2022-08-28T01:22:57.389Z,16.89
2022-08-28T01:28:03.412Z,16.78
2022-08-28T01:33:06.275Z,16.77
2022-08-28T01:38:09.197Z,16.77
2022-08-28T01:43:15.082Z,16.67
2022-08-28T01:48:18.456Z,16.62
2022-08-28T01:53:24.805Z,16.63
2022-08-28T01:58:33.015Z,16.62
2022-08-28T02:03:39.434Z,16.44
2022-08-28T02:08:42.820Z,16.46
2022-08-28T02:13:46.995Z,16.35
2022-08-28T02:18:53.709Z,16.21
2022-08-28T02:23:56.509Z,16.15
2022-08-28T02:29:00.806Z,16.02
2022-08-28T02:34:03.644Z,16.00
2022-08-28T02:39:06.414Z,15.96
2022-08-28T02:44:10.644Z,15.85
2022-08-28T02:49:13.455Z,15.92
2022-08-28T02:54:16.262Z,15.95
2022-08-28T02:59:22.894Z,16.04
2022-08-28T03:04:25.686Z,16.10
2022-08-28T03:09:28.592Z,15.98
2022-08-28T03:14:32.772Z,15.95
2022-08-28T03:19:36.138Z,15.87
2022-08-28T03:24:39.157Z,15.83
2022-08-28T03:29:43.361Z,15.79
2022-08-28T03:34:46.761Z,15.79
2022-08-28T03:39:50.159Z,15.80
2022-08-28T03:44:54.510Z,15.77
2022-08-28T03:49:57.972Z,15.65
2022-08-28T03:55:01.213Z,15.61
2022-08-28T04:00:08.566Z,15.61
2022-08-28T04:05:12.267Z,15.60
2022-08-28T04:10:15.102Z,15.63
2022-08-28T04:15:20.308Z,15.64
2022-08-28T04:20:23.187Z,15.66
2022-08-28T04:25:26.800Z,15.60
2022-08-28T04:30:31.026Z,15.48
2022-08-28T04:35:33.821Z,15.50
2022-08-28T04:40:40.331Z,15.40
2022-08-28T04:45:46.709Z,15.41
2022-08-28T04:50:50.645Z,15.45
2022-08-28T04:55:55.250Z,15.52
2022-08-28T05:00:59.722Z,15.63
2022-08-28T05:06:03.686Z,15.75
2022-08-28T05:11:14.603Z,15.88
2022-08-28T05:16:31.840Z,16.00
2022-08-28T05:21:34.735Z,16.12
2022-08-28T05:26:38.959Z,16.21
2022-08-28T05:31:44.696Z,16.24
2022-08-28T05:36:49.481Z,16.41
2022-08-28T05:41:52.251Z,16.56
2022-08-28T05:46:56.437Z,16.73
2022-08-28T05:51:59.246Z,16.84
2022-08-28T05:57:02.058Z,17.00
2022-08-28T06:02:07.982Z,17.18
2022-08-28T06:07:12.181Z,17.30
2022-08-28T06:12:15.642Z,17.34
2022-08-28T06:17:23.583Z,17.39
2022-08-28T06:22:26.715Z,17.68
2022-08-28T06:27:31.168Z,17.84
2022-08-28T06:32:35.340Z,18.01
2022-08-28T06:37:38.145Z,18.09
2022-08-28T06:42:40.983Z,18.29
2022-08-28T06:47:45.161Z,18.43
2022-08-28T06:52:47.960Z,18.66
2022-08-28T06:57:50.747Z,18.88
2022-08-28T07:02:54.939Z,19.17
2022-08-28T07:07:57.729Z,19.43
2022-08-28T07:13:00.859Z,19.56
2022-08-28T07:18:05.153Z,19.58
2022-08-28T07:23:08.120Z,19.63
2022-08-28T07:28:10.894Z,19.68
2022-08-28T07:33:15.052Z,19.82
2022-08-28T07:38:18.156Z,19.83
2022-08-28T07:43:38.462Z,19.80
2022-08-28T07:48:44.565Z,19.85
2022-08-28T07:53:47.401Z,20.07
2022-08-28T07:58:50.194Z,20.47
2022-08-28T08:03:57.648Z,20.87
2022-08-28T08:09:06.200Z,21.21
2022-08-28T08:14:09.471Z,21.48
2022-08-28T08:19:15.062Z,21.54
2022-08-28T08:24:20.942Z,21.42
2022-08-28T08:29:24.515Z,21.34
2022-08-28T08:34:28.675Z,21.41
2022-08-28T08:39:31.730Z,21.29
2022-08-28T08:44:40.363Z,21.21
2022-08-28T08:49:51.466Z,21.19
2022-08-28T08:55:06.180Z,21.20
2022-08-28T09:00:15.810Z,21.17
2022-08-28T09:05:23.790Z,21.17
2022-08-28T09:10:36.375Z,21.18
2022-08-28T09:15:48.680Z,21.29
2022-08-28T09:20:56.825Z,21.37
2022-08-28T09:26:02.391Z,21.31
2022-08-28T09:31:09.030Z,21.18
2022-08-28T09:36:31.676Z,20.98
2022-08-28T09:41:56.002Z,20.97
2022-08-28T09:46:59.294Z,21.09
2022-08-28T09:52:23.185Z,21.31
2022-08-28T09:57:28.166Z,21.80
2022-08-28T10:02:41.756Z,22.22
2022-08-28T10:07:52.574Z,22.72
2022-08-28T10:13:05.151Z,23.05
2022-08-28T10:18:24.332Z,23.25
2022-08-28T10:23:39.637Z,23.47
2022-08-28T10:28:50.312Z,23.68
2022-08-28T10:34:04.780Z,23.78
2022-08-28T10:39:23.386Z,23.85
2022-08-28T10:44:31.816Z,24.20
2022-08-28T10:49:39.207Z,24.54
2022-08-28T10:54:50.797Z,24.50
2022-08-28T10:59:54.949Z,24.81
2022-08-28T11:04:58.955Z,24.96
2022-08-28T11:15:53.459Z,25.07
2022-08-28T11:21:04.422Z,25.22
2022-08-28T11:26:13.450Z,25.47
2022-08-28T11:31:36.385Z,25.56
2022-08-28T11:36:59.415Z,25.74
2022-08-28T11:42:32.278Z,25.65
2022-08-28T11:47:56.566Z,25.61
2022-08-28T11:53:46.066Z,25.68
2022-08-28T11:58:57.553Z,25.48
2022-08-28T12:04:08.051Z,24.82
2022-08-28T12:09:12.155Z,24.71
2022-08-28T12:15:07.416Z,24.84
2022-08-28T12:20:17.140Z,24.86
2022-08-28T12:25:32.730Z,25.10
2022-08-28T12:30:45.491Z,25.21
2022-08-28T12:35:50.692Z,25.28
2022-08-28T12:40:54.269Z,25.48
2022-08-28T12:46:00.504Z,25.65
2022-08-28T12:51:07.746Z,25.71
2022-08-28T12:56:11.935Z,25.83
2022-08-28T13:01:17.329Z,25.97
2022-08-28T13:06:28.906Z,26.23
2022-08-28T13:11:36.462Z,26.39
2022-08-28T13:16:41.279Z,26.37
2022-08-28T13:22:00.363Z,26.41
2022-08-28T13:27:08.809Z,26.19
2022-08-28T13:32:18.483Z,26.60
2022-08-28T13:37:44.681Z,26.89
2022-08-28T13:42:48.886Z,26.98
2022-08-28T13:47:51.715Z,27.10
2022-08-28T13:52:56.263Z,27.23
2022-08-28T13:57:59.077Z,27.27
2022-08-28T14:03:19.169Z,27.36
2022-08-28T14:08:24.050Z,27.62
2022-08-28T14:13:27.875Z,27.73
2022-08-28T14:18:30.705Z,27.94
2022-08-28T14:23:35.373Z,28.35
2022-08-28T14:28:38.146Z,28.40
2022-08-28T14:33:41.688Z,28.81
2022-08-28T14:38:46.654Z,29.26
2022-08-28T14:43:50.367Z,29.97
2022-08-28T14:48:53.302Z,30.28
2022-08-28T14:53:59.917Z,30.30
2022-08-28T14:59:04.973Z,29.91
2022-08-28T15:04:11.087Z,29.31
2022-08-28T15:09:15.757Z,29.21
2022-08-28T15:14:18.818Z,29.09
2022-08-28T15:19:23.298Z,29.48
2022-08-28T15:24:30.956Z,30.07
2022-08-28T15:29:33.816Z,30.56
2022-08-28T15:34:36.610Z,30.57
2022-08-28T15:39:58.354Z,30.83
2022-08-28T15:45:01.208Z,31.38
2022-08-28T15:50:06.159Z,32.22
2022-08-28T15:55:11.250Z,32.67
2022-08-28T16:00:15.221Z,33.20
2022-08-28T16:05:18.398Z,33.55
2022-08-28T16:10:25.851Z,32.69
2022-08-28T16:15:29.345Z,31.99
2022-08-28T16:20:32.450Z,30.99
2022-08-28T16:25:37.200Z,30.16
2022-08-28T16:30:44.012Z,29.38
2022-08-28T16:35:55.126Z,28.56
2022-08-28T16:41:00.640Z,28.09
2022-08-28T16:46:04.333Z,27.96
2022-08-28T16:51:08.766Z,28.21
2022-08-28T16:56:14.873Z,28.43
2022-08-28T17:01:17.814Z,28.26
2022-08-28T17:06:24.486Z,28.80
2022-08-28T17:11:28.966Z,28.87
2022-08-28T17:16:32.304Z,28.29
2022-08-28T17:21:52.373Z,27.76
2022-08-28T17:26:56.528Z,27.27
2022-08-28T17:31:59.277Z,26.90
2022-08-28T17:37:02.136Z,26.55
2022-08-28T17:42:06.552Z,26.29
2022-08-28T17:47:09.378Z,26.05
2022-08-28T17:52:12.197Z,25.70
2022-08-28T17:57:19.149Z,25.38
2022-08-28T18:02:21.982Z,25.01
2022-08-28T18:07:26.000Z,24.72
2022-08-28T18:12:32.493Z,24.54
2022-08-28T18:17:36.822Z,24.43
2022-08-28T18:22:42.629Z,24.08
2022-08-28T18:27:46.850Z,23.63
2022-08-28T18:32:49.844Z,23.32
2022-08-28T18:37:52.709Z,23.25
2022-08-28T18:42:59.094Z,23.22
2022-08-28T18:48:05.823Z,23.15
2022-08-28T18:53:09.712Z,22.97
2022-08-28T18:58:15.126Z,22.73
2022-08-28T19:03:22.173Z,22.62
2022-08-28T19:08:25.783Z,22.59
2022-08-28T19:13:32.055Z,22.31
2022-08-28T19:18:37.937Z,22.16
2022-08-28T19:23:41.416Z,22.06
2022-08-28T19:29:00.722Z,21.88
2022-08-28T19:34:07.720Z,21.81
2022-08-28T19:39:10.451Z,21.77
2022-08-28T19:44:19.688Z,21.54
2022-08-28T19:49:22.430Z,21.44
2022-08-28T19:54:25.275Z,21.05
2022-08-28T19:59:29.445Z,21.03
2022-08-28T20:04:33.128Z,20.77
2022-08-28T20:09:36.144Z,20.79
2022-08-28T20:14:42.480Z,20.66
2022-08-28T20:19:45.999Z,20.55
2022-08-28T20:24:49.152Z,20.50
2022-08-28T20:29:53.496Z,20.49
2022-08-28T20:34:56.285Z,20.42
2022-08-28T20:40:00.256Z,20.37
2022-08-28T20:45:06.213Z,20.30
2022-08-28T20:50:09.878Z,20.27
2022-08-28T20:55:14.151Z,20.24
2022-08-28T21:00:18.398Z,20.18
2022-08-28T21:05:21.517Z,19.92
2022-08-28T21:10:24.513Z,19.70
2022-08-28T21:15:28.724Z,19.55
2022-08-28T21:20:31.513Z,19.58
2022-08-28T21:25:34.402Z,19.59
2022-08-28T21:30:42.554Z,19.59
2022-08-28T21:35:46.293Z,19.52
2022-08-28T21:40:49.039Z,19.41
2022-08-28T21:45:59.814Z,19.35
2022-08-28T21:51:03.673Z,19.28
2022-08-28T21:56:08.579Z,19.23
2022-08-28T22:01:15.488Z,19.17
2022-08-28T22:06:21.849Z,19.12
2022-08-28T22:11:26.736Z,19.04
2022-08-28T22:16:31.544Z,18.98
2022-08-28T22:21:51.988Z,18.88
2022-08-28T22:26:57.390Z,18.91
2022-08-28T22:32:01.956Z,18.73
2022-08-28T22:37:04.822Z,18.45
2022-08-28T22:42:08.091Z,18.43
2022-08-28T22:47:12.269Z,18.34
2022-08-28T22:52:15.336Z,18.11
2022-08-28T22:57:18.181Z,17.99
2022-08-28T23:02:27.210Z,18.02
2022-08-28T23:07:30.277Z,18.07
2022-08-28T23:12:34.432Z,17.99
2022-08-28T23:17:38.651Z,17.85
2022-08-28T23:22:44.197Z,17.72
2022-08-28T23:27:47.637Z,17.81
2022-08-28T23:32:51.917Z,17.69
2022-08-28T23:37:54.697Z,17.54
2022-08-28T23:42:58.102Z,17.55
2022-08-28T23:48:03.566Z,17.50
2022-08-28T23:53:08.105Z,17.35
2022-08-28T23:58:11.228Z,17.30
